createdAt,value
2023-04-15T00:02:20.339Z,1.97
2023-04-15T00:07:12.870Z,1.97
2023-04-15T00:12:05.917Z,2.47
2023-04-15T00:16:58.612Z,2.70
2023-04-15T00:21:50.795Z,2.87
2023-04-15T00:26:43.015Z,3.00
2023-04-15T00:31:35.062Z,3.20
2023-04-15T00:36:27.474Z,2.70
2023-04-15T00:41:19.701Z,3.03
2023-04-15T00:46:14.472Z,3.60
2023-04-15T00:51:07.661Z,2.60
2023-04-15T00:55:59.728Z,2.00
2023-04-15T01:00:54.457Z,3.20
2023-04-15T01:11:54.126Z,2.77
2023-04-15T01:16:47.033Z,2.00
2023-04-15T01:21:39.854Z,2.20
2023-04-15T01:26:32.470Z,2.90
2023-04-15T01:31:24.594Z,1.83
2023-04-15T01:36:16.737Z,2.37
2023-04-15T01:41:09.277Z,2.00
2023-04-15T01:46:01.668Z,2.10
2023-04-15T01:50:55.216Z,2.03
2023-04-15T01:55:47.395Z,2.37
2023-04-15T02:00:40.124Z,2.23
2023-04-15T02:05:32.188Z,2.10
2023-04-15T02:10:24.332Z,1.70
2023-04-15T02:15:16.507Z,2.20
2023-04-15T02:20:09.439Z,2.20
2023-04-15T02:25:01.430Z,2.40
2023-04-15T02:29:57.210Z,2.20
2023-04-15T02:34:49.212Z,2.47
2023-04-15T02:39:41.256Z,2.00
2023-04-15T02:44:34.480Z,2.07
2023-04-15T02:49:31.053Z,1.93
2023-04-15T02:54:23.855Z,2.20
2023-04-15T02:59:17.259Z,2.17
2023-04-15T03:04:09.645Z,1.77
2023-04-15T03:09:03.657Z,2.13
2023-04-15T03:13:59.729Z,2.37
2023-04-15T03:18:57.103Z,2.30
2023-04-15T03:23:50.024Z,2.27
2023-04-15T03:28:42.664Z,2.00
2023-04-15T03:33:35.061Z,2.20
2023-04-15T03:38:27.150Z,2.27
2023-04-15T03:43:19.192Z,2.40
2023-04-15T03:48:17.820Z,2.30
2023-04-15T03:53:10.491Z,1.90
2023-04-15T03:58:02.545Z,2.73
2023-04-15T04:02:54.681Z,2.53
2023-04-15T04:07:47.438Z,3.33
2023-04-15T04:12:39.453Z,3.20
2023-04-15T04:17:31.570Z,3.03
2023-04-15T04:22:24.652Z,3.10
2023-04-15T04:27:16.828Z,4.63
2023-04-15T04:32:08.876Z,3.33
2023-04-15T04:37:01.348Z,3.33
2023-04-15T04:41:53.472Z,3.83
2023-04-15T04:46:45.454Z,4.43
2023-04-15T04:51:37.605Z,3.50
2023-04-15T04:56:29.681Z,3.60
2023-04-15T05:01:21.942Z,4.17
2023-04-15T05:06:14.108Z,4.03
2023-04-15T05:11:06.286Z,3.83
2023-04-15T05:15:58.295Z,3.77
2023-04-15T05:20:50.524Z,4.40
2023-04-15T05:25:42.592Z,4.30
2023-04-15T05:30:35.971Z,3.97
2023-04-15T05:35:27.962Z,4.33
2023-04-15T05:40:20.464Z,4.50
2023-04-15T05:45:12.555Z,5.00
2023-04-15T05:50:06.614Z,5.63
2023-04-15T05:54:58.717Z,5.67
2023-04-15T05:59:52.895Z,5.13
2023-04-15T06:04:45.005Z,5.17
2023-04-15T06:09:37.062Z,4.40
2023-04-15T06:14:29.202Z,3.70
2023-04-15T06:19:21.138Z,4.17
2023-04-15T06:24:13.542Z,3.20
2023-04-15T06:29:05.756Z,3.57
2023-04-15T06:33:57.760Z,2.23
2023-04-15T06:38:49.775Z,1.77
2023-04-15T06:43:41.780Z,1.03
2023-04-15T06:48:33.989Z,0.90
2023-04-15T06:53:29.349Z,0.97
2023-04-15T06:58:21.868Z,0.73
2023-04-15T07:03:15.168Z,0.70
2023-04-15T07:08:07.753Z,0.40
2023-04-15T07:12:59.834Z,1.90
2023-04-15T07:17:51.818Z,0.37
2023-04-15T07:22:44.312Z,0.40
2023-04-15T07:27:36.709Z,0.43
2023-04-15T07:32:28.843Z,0.40
2023-04-15T07:37:20.866Z,0.70
2023-04-15T07:42:13.009Z,0.80
2023-04-15T07:47:04.967Z,0.70
2023-04-15T07:51:57.904Z,0.40
2023-04-15T07:56:49.972Z,1.97
2023-04-15T08:01:42.596Z,0.87
2023-04-15T08:06:34.842Z,0.80
2023-04-15T08:11:27.839Z,0.60
2023-04-15T08:16:27.869Z,0.43
2023-04-15T08:21:20.979Z,0.83
2023-04-15T08:26:15.560Z,0.43
2023-04-15T08:31:08.071Z,0.23
2023-04-15T08:36:00.272Z,0.73
2023-04-15T08:40:52.637Z,0.70
2023-04-15T08:45:46.424Z,0.20
2023-04-15T08:50:38.616Z,0.30
2023-04-15T08:55:35.886Z,0.30
2023-04-15T09:00:29.259Z,1.13
2023-04-15T09:05:21.649Z,0.70
2023-04-15T09:10:13.781Z,1.37
2023-04-15T09:15:06.388Z,2.03
2023-04-15T09:20:12.578Z,3.43
2023-04-15T09:25:05.093Z,2.33
2023-04-15T09:29:57.147Z,2.10
2023-04-15T09:34:49.494Z,2.57
2023-04-15T09:39:52.658Z,2.60
2023-04-15T09:44:44.789Z,3.20
2023-04-15T09:49:37.094Z,2.53
2023-04-15T09:54:34.631Z,2.50
2023-04-15T09:59:26.638Z,2.63
2023-04-15T10:04:18.862Z,2.77
2023-04-15T10:09:11.128Z,3.73
2023-04-15T10:14:04.239Z,2.63
2023-04-15T10:18:58.683Z,2.50
2023-04-15T10:23:51.668Z,2.40
2023-04-15T10:28:44.458Z,3.60
2023-04-15T10:33:36.724Z,2.07
2023-04-15T10:38:44.611Z,2.40
2023-04-15T10:43:37.595Z,2.57
2023-04-15T10:48:31.338Z,3.00
2023-04-15T10:53:30.896Z,2.67
2023-04-15T10:58:26.099Z,3.03
2023-04-15T11:03:18.420Z,4.67
2023-04-15T11:08:11.416Z,2.90
2023-04-15T11:13:10.695Z,2.83
2023-04-15T11:18:25.822Z,2.77
2023-04-15T11:23:19.676Z,2.87
2023-04-15T11:28:12.824Z,2.43
2023-04-15T11:33:07.123Z,1.90
2023-04-15T11:38:02.854Z,2.33
2023-04-15T11:43:20.388Z,2.00
2023-04-15T11:48:14.208Z,1.63
2023-04-15T11:53:08.644Z,1.40
2023-04-15T11:58:08.900Z,1.40
2023-04-15T12:03:22.123Z,1.23
2023-04-15T12:08:14.313Z,2.10
2023-04-15T12:13:10.199Z,1.50
2023-04-15T12:18:02.429Z,1.67
2023-04-15T12:23:06.447Z,2.47
2023-04-15T12:27:59.474Z,0.83
2023-04-15T12:32:52.594Z,1.37
2023-04-15T12:37:44.747Z,2.57
2023-04-15T12:42:36.758Z,1.80
2023-04-15T12:47:28.867Z,1.17
2023-04-15T12:52:20.992Z,0.90
2023-04-15T12:57:13.040Z,1.00
2023-04-15T13:02:05.240Z,1.00
2023-04-15T13:06:57.589Z,0.70
2023-04-15T13:11:50.213Z,0.97
2023-04-15T13:16:42.166Z,1.17
2023-04-15T13:21:35.907Z,1.27
2023-04-15T13:26:28.550Z,2.20
2023-04-15T13:31:20.629Z,2.13
2023-04-15T13:36:12.829Z,1.17
2023-04-15T13:41:04.905Z,1.53
2023-04-15T13:45:57.015Z,1.50
2023-04-15T13:50:49.031Z,1.80
2023-04-15T13:55:42.757Z,1.30
2023-04-15T14:00:34.846Z,3.13
2023-04-15T14:05:26.958Z,1.70
2023-04-15T14:10:19.103Z,1.70
2023-04-15T14:15:11.392Z,2.20
2023-04-15T14:20:04.883Z,1.90
2023-04-15T14:24:56.952Z,1.30
2023-04-15T14:29:49.035Z,8.60
2023-04-15T14:34:41.125Z,1.37
2023-04-15T14:39:33.489Z,1.97
2023-04-15T14:44:25.706Z,1.90
2023-04-15T14:49:17.884Z,1.90
2023-04-15T14:54:11.146Z,1.30
2023-04-15T14:59:03.323Z,1.50
2023-04-15T15:03:55.624Z,1.80
2023-04-15T15:08:47.674Z,1.73
2023-04-15T15:13:39.712Z,1.73
2023-04-15T15:18:31.908Z,1.77
2023-04-15T15:23:24.035Z,1.90
2023-04-15T15:28:16.165Z,2.77
2023-04-15T15:33:08.474Z,1.33
2023-04-15T15:38:01.531Z,1.03
2023-04-15T15:42:53.684Z,0.77
2023-04-15T15:47:45.846Z,1.00
2023-04-15T15:52:38.089Z,0.80
2023-04-15T15:57:30.165Z,1.20
2023-04-15T16:02:37.577Z,1.47
2023-04-15T16:07:34.255Z,1.93
2023-04-15T16:12:26.838Z,4.40
2023-04-15T16:17:18.908Z,1.80
2023-04-15T16:22:11.169Z,1.53
2023-04-15T16:27:03.200Z,7.50
2023-04-15T16:31:56.594Z,2.60
2023-04-15T16:36:48.745Z,0.73
2023-04-15T16:41:42.712Z,3.63
2023-04-15T16:46:34.719Z,2.73
2023-04-15T16:51:27.620Z,3.03
2023-04-15T16:56:19.778Z,9.47
2023-04-15T17:01:12.126Z,6.00
2023-04-15T17:06:04.563Z,5.33
2023-04-15T17:10:58.429Z,8.83
2023-04-15T17:15:51.587Z,8.20
2023-04-15T17:20:44.350Z,15.37
2023-04-15T17:25:36.811Z,7.97
2023-04-15T17:30:28.962Z,7.47
2023-04-15T17:35:21.130Z,14.20
2023-04-15T17:40:13.869Z,14.00
2023-04-15T17:45:06.568Z,14.23
2023-04-15T17:49:58.580Z,36.43
2023-04-15T17:54:51.930Z,40.47
2023-04-15T17:59:45.162Z,25.27
2023-04-15T18:04:37.262Z,24.67
2023-04-15T18:09:29.349Z,24.97
2023-04-15T18:14:33.528Z,35.53
2023-04-15T18:19:26.532Z,40.83
2023-04-15T18:24:18.808Z,28.07
2023-04-15T18:29:11.213Z,32.47
2023-04-15T18:34:06.537Z,20.33
2023-04-15T18:38:59.220Z,24.13
2023-04-15T18:43:51.511Z,16.37
2023-04-15T18:48:43.562Z,7.87
2023-04-15T18:53:35.819Z,11.50
2023-04-15T18:58:27.968Z,31.97
2023-04-15T19:03:39.975Z,16.87
2023-04-15T19:08:32.154Z,13.77
2023-04-15T19:13:26.262Z,13.93
2023-04-15T19:18:18.729Z,14.57
2023-04-15T19:23:11.197Z,5.10
2023-04-15T19:28:03.347Z,3.30
2023-04-15T19:32:55.453Z,7.20
2023-04-15T19:37:48.076Z,4.73
2023-04-15T19:42:40.175Z,3.50
2023-04-15T19:47:33.838Z,7.73
2023-04-15T19:52:26.253Z,3.80
2023-04-15T19:57:18.441Z,4.10
2023-04-15T20:02:10.856Z,4.43
2023-04-15T20:07:03.123Z,4.30
2023-04-15T20:12:46.092Z,4.87
2023-04-15T20:17:07.298Z,8.70
2023-04-15T20:21:59.742Z,4.50
2023-04-15T20:26:51.764Z,27.63
2023-04-15T20:31:44.000Z,47.67
2023-04-15T20:36:36.018Z,27.80
2023-04-15T20:41:28.126Z,30.57
2023-04-15T20:46:21.786Z,15.63
2023-04-15T20:51:14.049Z,11.87
2023-04-15T20:56:06.495Z,16.13
2023-04-15T21:00:59.133Z,13.90
2023-04-15T21:05:51.376Z,18.63
2023-04-15T21:10:43.540Z,28.93
2023-04-15T21:15:35.744Z,45.20
2023-04-15T21:20:28.093Z,6.20
2023-04-15T21:25:20.446Z,6.57
2023-04-15T21:30:13.133Z,8.57
2023-04-15T21:35:08.417Z,7.97
2023-04-15T21:40:00.567Z,14.67
2023-04-15T21:44:52.571Z,8.23
2023-04-15T21:49:44.561Z,10.60
2023-04-15T21:54:38.052Z,5.87
2023-04-15T21:59:30.179Z,5.80
2023-04-15T22:04:22.390Z,6.13
2023-04-15T22:09:14.656Z,4.70
2023-04-15T22:14:06.796Z,4.97
2023-04-15T22:18:58.812Z,5.73
2023-04-15T22:23:51.605Z,8.53
2023-04-15T22:28:43.682Z,6.10
2023-04-15T22:33:36.080Z,4.80
2023-04-15T22:38:28.208Z,5.27
2023-04-15T22:43:20.505Z,5.10
2023-04-15T22:48:12.630Z,6.33
2023-04-15T22:53:04.633Z,7.20
2023-04-15T22:57:57.162Z,6.40
2023-04-15T23:02:49.263Z,7.70
2023-04-15T23:07:41.447Z,20.30
2023-04-15T23:12:33.543Z,7.80
2023-04-15T23:17:26.761Z,7.63
2023-04-15T23:22:19.313Z,7.77
2023-04-15T23:27:11.465Z,10.70
2023-04-15T23:32:03.486Z,6.77
2023-04-15T23:36:55.620Z,7.47
2023-04-15T23:41:48.215Z,7.00
2023-04-15T23:46:44.064Z,6.93
2023-04-15T23:51:36.280Z,6.87
2023-04-15T23:56:28.246Z,6.70
